This is the latest recevied weather packets stored in our database for station/object KK4WXG. If no packets are shown the sender has not sent any weather packets the latest 10 day(s).
| Time | Temp. | Humidity | Pressure | Rain* | Wind** | Luminosity | Snow |
|---|---|---|---|---|---|---|---|
| 1777494146 | 15° C | 91% | 1007.6 hPa | 0.51 mm | - | 62 W/m² | - |
| 1777493844 | 15° C | 90% | 1007.5 hPa | 0 mm | - | 70 W/m² | - |
| 1777493542 | 15° C | 91% | 1007.7 hPa | 0 mm | - | 57 W/m² | - |
| 1777493239 | 15° C | 90% | 1007.7 hPa | 0 mm | - | 55 W/m² | - |
| 1777492935 | 15° C | 90% | 1007.7 hPa | 0 mm | - | 56 W/m² | - |
| 1777492327 | 15° C | 89% | 1008.1 hPa | 0 mm | - | 82 W/m² | - |
| 1777491721 | 15° C | 89% | 1008.2 hPa | 0 mm | - | 146 W/m² | - |
| 1777491418 | 15.56° C | 91% | 1008.5 hPa | 0 mm | - | 125 W/m² | - |
| 1777491115 | 15° C | 91% | 1008.3 hPa | 0 mm | - | 182 W/m² | - |
| 1777490810 | 15° C | 92% | 1008.2 hPa | 0 mm | - | 246 W/m² | - |
| 1777490507 | 15° C | 92% | 1008.3 hPa | 0 mm | - | 273 W/m² | - |
| 1777489901 | 15° C | 91% | 1008.8 hPa | 0.51 mm | - | 165 W/m² | - |
| 1777489598 | 15° C | 91% | 1008.7 hPa | 0 mm | - | 157 W/m² | - |
| 1777484143 | 14.44° C | 87% | 1010.7 hPa | 0 mm | - | 133 W/m² | - |
| 1777482928 | 14.44° C | 83% | 1011.2 hPa | 0 mm | - | 101 W/m² | - |
| 1777481716 | 14.44° C | 81% | 1011.5 hPa | 0 mm | - | 132 W/m² | - |
| 1777480199 | 13.89° C | 83% | 1011.5 hPa | 0 mm | - | 112 W/m² | - |
| 1777479290 | 13.89° C | 82% | 1011.9 hPa | 0 mm | - | 83 W/m² | - |
| 1777475951 | 13.33° C | 83% | 1012.8 hPa | 0 mm | - | 137 W/m² | - |
| 1777475344 | 13.33° C | 82% | 1013.1 hPa | 0 mm | - | 118 W/m² | - |
| 1777475039 | 13.33° C | 82% | 1013.1 hPa | 0 mm | - | 112 W/m² | - |
| 1777473523 | 12.78° C | 80% | 1013.4 hPa | 0 mm | - | 88 W/m² | - |
| 1777473218 | 12.78° C | 79% | 1013.5 hPa | 0 mm | - | 89 W/m² | - |
| 1777472915 | 12.78° C | 78% | 1013.6 hPa | 0 mm | - | 85 W/m² | - |
| 1777472612 | 12.78° C | 78% | 1013.4 hPa | 0 mm | - | 83 W/m² | - |
* Rain latest hour (hover to see other rain measurements)
** Current wind speed in m/s (hover to see current wind gust speed)